sensor_id;sensor_type;location;lat;lon;timestamp;P1;durP1;ratioP1;P2;durP2;ratioP2
67768;SDS011;54569;52.018;5.584;2023-09-19T00:00:30;2.95;;;1.65;;
67768;SDS011;54569;52.018;5.584;2023-09-19T00:02:56;5.30;;;1.55;;
67768;SDS011;54569;52.018;5.584;2023-09-19T00:05:27;5.88;;;1.60;;
67768;SDS011;54569;52.018;5.584;2023-09-19T00:07:55;2.42;;;1.30;;
67768;SDS011;54569;52.018;5.584;2023-09-19T00:10:33;4.55;;;1.75;;
67768;SDS011;54569;52.018;5.584;2023-09-19T00:13:02;5.05;;;1.80;;
67768;SDS011;54569;52.018;5.584;2023-09-19T00:15:44;5.57;;;1.77;;
67768;SDS011;54569;52.018;5.584;2023-09-19T00:18:13;4.53;;;1.67;;
67768;SDS011;54569;52.018;5.584;2023-09-19T00:20:40;6.07;;;1.88;;
67768;SDS011;54569;52.018;5.584;2023-09-19T00:23:07;6.47;;;1.52;;
67768;SDS011;54569;52.018;5.584;2023-09-19T00:25:36;3.17;;;1.58;;
67768;SDS011;54569;52.018;5.584;2023-09-19T00:28:02;6.30;;;1.55;;
67768;SDS011;54569;52.018;5.584;2023-09-19T00:30:29;5.07;;;2.00;;
67768;SDS011;54569;52.018;5.584;2023-09-19T00:32:55;4.68;;;1.45;;
67768;SDS011;54569;52.018;5.584;2023-09-19T00:35:22;10.18;;;2.33;;
67768;SDS011;54569;52.018;5.584;2023-09-19T00:37:51;5.32;;;2.08;;
67768;SDS011;54569;52.018;5.584;2023-09-19T00:40:17;5.13;;;1.67;;
67768;SDS011;54569;52.018;5.584;2023-09-19T00:42:43;5.93;;;1.75;;
67768;SDS011;54569;52.018;5.584;2023-09-19T00:45:11;7.35;;;1.60;;
67768;SDS011;54569;52.018;5.584;2023-09-19T00:47:48;3.92;;;1.73;;
67768;SDS011;54569;52.018;5.584;2023-09-19T00:50:15;5.43;;;1.80;;
67768;SDS011;54569;52.018;5.584;2023-09-19T00:52:48;7.00;;;1.67;;
67768;SDS011;54569;52.018;5.584;2023-09-19T00:55:15;5.03;;;2.00;;
67768;SDS011;54569;52.018;5.584;2023-09-19T00:57:41;6.30;;;2.15;;
67768;SDS011;54569;52.018;5.584;2023-09-19T01:00:09;5.97;;;2.17;;
67768;SDS011;54569;52.018;5.584;2023-09-19T01:02:41;6.32;;;2.13;;
67768;SDS011;54569;52.018;5.584;2023-09-19T01:05:08;5.05;;;1.58;;
67768;SDS011;54569;52.018;5.584;2023-09-19T01:07:35;9.88;;;1.77;;
67768;SDS011;54569;52.018;5.584;2023-09-19T01:10:04;10.02;;;2.20;;
67768;SDS011;54569;52.018;5.584;2023-09-19T01:26:52;8.75;;;2.15;;
67768;SDS011;54569;52.018;5.584;2023-09-19T01:32:11;10.32;;;2.30;;
67768;SDS011;54569;52.018;5.584;2023-09-19T01:37:18;9.45;;;2.33;;
67768;SDS011;54569;52.018;5.584;2023-09-19T01:39:49;8.48;;;2.42;;
67768;SDS011;54569;52.018;5.584;2023-09-19T01:42:28;9.57;;;2.17;;
67768;SDS011;54569;52.018;5.584;2023-09-19T01:55:45;9.57;;;2.33;;
67768;SDS011;54569;52.018;5.584;2023-09-19T01:58:20;10.63;;;2.20;;
67768;SDS011;54569;52.018;5.584;2023-09-19T02:00:55;7.85;;;2.00;;
67768;SDS011;54569;52.018;5.584;2023-09-19T02:03:23;8.35;;;1.92;;
67768;SDS011;54569;52.018;5.584;2023-09-19T02:05:50;9.95;;;2.10;;
67768;SDS011;54569;52.018;5.584;2023-09-19T02:08:19;9.23;;;2.00;;
67768;SDS011;54569;52.018;5.584;2023-09-19T02:10:49;9.32;;;2.63;;
67768;SDS011;54569;52.018;5.584;2023-09-19T02:13:15;7.93;;;2.42;;
67768;SDS011;54569;52.018;5.584;2023-09-19T02:15:43;6.95;;;2.30;;
67768;SDS011;54569;52.018;5.584;2023-09-19T02:18:15;10.95;;;2.20;;
67768;SDS011;54569;52.018;5.584;2023-09-19T02:20:41;9.45;;;2.38;;
67768;SDS011;54569;52.018;5.584;2023-09-19T02:23:08;6.25;;;2.42;;
67768;SDS011;54569;52.018;5.584;2023-09-19T02:25:34;9.10;;;2.45;;
67768;SDS011;54569;52.018;5.584;2023-09-19T02:28:00;11.45;;;2.47;;
67768;SDS011;54569;52.018;5.584;2023-09-19T02:30:29;10.35;;;2.10;;
67768;SDS011;54569;52.018;5.584;2023-09-19T02:32:55;7.45;;;2.00;;
67768;SDS011;54569;52.018;5.584;2023-09-19T02:35:21;6.38;;;1.85;;
67768;SDS011;54569;52.018;5.584;2023-09-19T02:37:47;8.80;;;2.30;;
67768;SDS011;54569;52.018;5.584;2023-09-19T02:40:14;8.70;;;2.38;;
67768;SDS011;54569;52.018;5.584;2023-09-19T02:42:53;10.10;;;2.35;;
67768;SDS011;54569;52.018;5.584;2023-09-19T02:45:21;7.38;;;1.90;;
67768;SDS011;54569;52.018;5.584;2023-09-19T02:47:48;11.82;;;2.13;;
67768;SDS011;54569;52.018;5.584;2023-09-19T02:50:14;9.32;;;2.78;;
67768;SDS011;54569;52.018;5.584;2023-09-19T02:52:41;5.82;;;1.92;;
67768;SDS011;54569;52.018;5.584;2023-09-19T02:55:09;11.27;;;2.53;;
67768;SDS011;54569;52.018;5.584;2023-09-19T02:57:35;7.28;;;2.33;;
67768;SDS011;54569;52.018;5.584;2023-09-19T03:00:06;9.20;;;2.30;;
67768;SDS011;54569;52.018;5.584;2023-09-19T03:02:35;9.77;;;2.15;;
67768;SDS011;54569;52.018;5.584;2023-09-19T03:05:02;10.40;;;2.10;;
67768;SDS011;54569;52.018;5.584;2023-09-19T03:07:29;9.98;;;1.80;;
67768;SDS011;54569;52.018;5.584;2023-09-19T03:09:55;5.28;;;1.95;;
67768;SDS011;54569;52.018;5.584;2023-09-19T03:12:20;8.85;;;2.35;;
67768;SDS011;54569;52.018;5.584;2023-09-19T03:14:47;8.13;;;2.92;;
67768;SDS011;54569;52.018;5.584;2023-09-19T03:17:13;10.10;;;1.95;;
67768;SDS011;54569;52.018;5.584;2023-09-19T03:19:40;9.23;;;2.42;;
67768;SDS011;54569;52.018;5.584;2023-09-19T03:22:06;9.85;;;2.30;;
67768;SDS011;54569;52.018;5.584;2023-09-19T03:24:32;9.02;;;2.47;;
67768;SDS011;54569;52.018;5.584;2023-09-19T03:27:02;15.38;;;2.55;;
67768;SDS011;54569;52.018;5.584;2023-09-19T03:29:28;8.77;;;1.95;;
67768;SDS011;54569;52.018;5.584;2023-09-19T03:31:54;8.85;;;2.47;;
67768;SDS011;54569;52.018;5.584;2023-09-19T03:34:20;8.98;;;2.28;;
67768;SDS011;54569;52.018;5.584;2023-09-19T03:36:46;14.82;;;2.78;;
67768;SDS011;54569;52.018;5.584;2023-09-19T03:39:12;7.95;;;2.00;;
67768;SDS011;54569;52.018;5.584;2023-09-19T03:41:41;8.20;;;2.03;;
67768;SDS011;54569;52.018;5.584;2023-09-19T03:44:07;6.53;;;1.98;;
67768;SDS011;54569;52.018;5.584;2023-09-19T03:46:33;7.22;;;2.30;;
67768;SDS011;54569;52.018;5.584;2023-09-19T03:49:01;9.00;;;2.53;;
67768;SDS011;54569;52.018;5.584;2023-09-19T03:51:27;8.05;;;2.15;;
67768;SDS011;54569;52.018;5.584;2023-09-19T03:53:53;8.60;;;1.90;;
67768;SDS011;54569;52.018;5.584;2023-09-19T03:56:19;4.78;;;1.98;;
67768;SDS011;54569;52.018;5.584;2023-09-19T03:58:45;9.35;;;1.90;;
67768;SDS011;54569;52.018;5.584;2023-09-19T04:01:11;5.15;;;1.77;;
67768;SDS011;54569;52.018;5.584;2023-09-19T04:03:38;10.95;;;1.80;;
67768;SDS011;54569;52.018;5.584;2023-09-19T04:06:16;9.48;;;2.08;;
67768;SDS011;54569;52.018;5.584;2023-09-19T04:08:43;12.70;;;2.50;;
67768;SDS011;54569;52.018;5.584;2023-09-19T04:11:10;5.97;;;1.90;;
67768;SDS011;54569;52.018;5.584;2023-09-19T04:13:36;5.90;;;2.08;;
67768;SDS011;54569;52.018;5.584;2023-09-19T04:16:03;9.65;;;1.77;;
67768;SDS011;54569;52.018;5.584;2023-09-19T04:18:37;6.95;;;2.33;;
67768;SDS011;54569;52.018;5.584;2023-09-19T04:21:05;8.98;;;2.00;;
67768;SDS011;54569;52.018;5.584;2023-09-19T04:23:32;8.88;;;2.22;;
67768;SDS011;54569;52.018;5.584;2023-09-19T04:25:57;6.87;;;1.90;;
67768;SDS011;54569;52.018;5.584;2023-09-19T04:28:23;8.35;;;2.38;;
67768;SDS011;54569;52.018;5.584;2023-09-19T04:30:49;8.00;;;2.03;;
67768;SDS011;54569;52.018;5.584;2023-09-19T04:33:15;6.57;;;1.80;;
67768;SDS011;54569;52.018;5.584;2023-09-19T04:35:41;9.68;;;2.03;;
67768;SDS011;54569;52.018;5.584;2023-09-19T04:38:09;9.82;;;2.05;;
67768;SDS011;54569;52.018;5.584;2023-09-19T04:40:36;10.27;;;2.63;;
67768;SDS011;54569;52.018;5.584;2023-09-19T04:43:04;7.00;;;1.80;;
67768;SDS011;54569;52.018;5.584;2023-09-19T04:45:31;7.63;;;2.38;;
67768;SDS011;54569;52.018;5.584;2023-09-19T04:47:56;10.50;;;2.35;;
67768;SDS011;54569;52.018;5.584;2023-09-19T04:50:22;6.82;;;1.65;;
67768;SDS011;54569;52.018;5.584;2023-09-19T04:52:51;7.78;;;2.50;;
67768;SDS011;54569;52.018;5.584;2023-09-19T04:55:17;6.80;;;2.05;;
67768;SDS011;54569;52.018;5.584;2023-09-19T04:57:44;10.02;;;2.10;;
67768;SDS011;54569;52.018;5.584;2023-09-19T05:00:12;9.10;;;2.13;;
67768;SDS011;54569;52.018;5.584;2023-09-19T05:02:39;5.28;;;1.85;;
67768;SDS011;54569;52.018;5.584;2023-09-19T05:05:08;7.05;;;2.00;;
67768;SDS011;54569;52.018;5.584;2023-09-19T05:07:36;7.20;;;1.80;;
67768;SDS011;54569;52.018;5.584;2023-09-19T05:10:02;7.15;;;2.30;;
67768;SDS011;54569;52.018;5.584;2023-09-19T05:12:35;5.45;;;1.95;;
67768;SDS011;54569;52.018;5.584;2023-09-19T05:15:04;9.27;;;2.22;;
67768;SDS011;54569;52.018;5.584;2023-09-19T05:17:32;13.40;;;2.53;;
67768;SDS011;54569;52.018;5.584;2023-09-19T05:20:04;9.43;;;2.15;;
67768;SDS011;54569;52.018;5.584;2023-09-19T05:22:57;7.78;;;2.00;;
67768;SDS011;54569;52.018;5.584;2023-09-19T05:25:27;9.25;;;2.20;;
67768;SDS011;54569;52.018;5.584;2023-09-19T05:27:57;5.03;;;1.65;;
67768;SDS011;54569;52.018;5.584;2023-09-19T05:30:28;9.05;;;1.90;;
67768;SDS011;54569;52.018;5.584;2023-09-19T05:32:54;7.18;;;2.00;;
67768;SDS011;54569;52.018;5.584;2023-09-19T05:35:21;8.23;;;2.33;;
67768;SDS011;54569;52.018;5.584;2023-09-19T05:37:48;11.10;;;2.85;;
67768;SDS011;54569;52.018;5.584;2023-09-19T05:40:16;9.57;;;2.00;;
67768;SDS011;54569;52.018;5.584;2023-09-19T05:42:42;8.90;;;2.40;;
67768;SDS011;54569;52.018;5.584;2023-09-19T05:45:09;12.48;;;2.53;;
67768;SDS011;54569;52.018;5.584;2023-09-19T05:47:41;12.52;;;2.47;;
67768;SDS011;54569;52.018;5.584;2023-09-19T05:50:08;6.78;;;2.20;;
67768;SDS011;54569;52.018;5.584;2023-09-19T05:52:38;6.30;;;2.13;;
67768;SDS011;54569;52.018;5.584;2023-09-19T05:55:07;15.63;;;2.63;;
67768;SDS011;54569;52.018;5.584;2023-09-19T05:57:36;6.55;;;2.25;;
67768;SDS011;54569;52.018;5.584;2023-09-19T06:00:07;8.77;;;2.00;;
67768;SDS011;54569;52.018;5.584;2023-09-19T06:02:37;9.30;;;2.15;;
67768;SDS011;54569;52.018;5.584;2023-09-19T06:05:06;10.23;;;2.50;;
67768;SDS011;54569;52.018;5.584;2023-09-19T06:07:35;7.75;;;1.92;;
67768;SDS011;54569;52.018;5.584;2023-09-19T06:10:03;8.82;;;2.17;;
67768;SDS011;54569;52.018;5.584;2023-09-19T06:12:33;7.35;;;2.10;;
67768;SDS011;54569;52.018;5.584;2023-09-19T06:15:08;8.90;;;1.75;;
67768;SDS011;54569;52.018;5.584;2023-09-19T06:17:38;9.13;;;2.28;;
67768;SDS011;54569;52.018;5.584;2023-09-19T06:20:06;9.20;;;2.33;;
67768;SDS011;54569;52.018;5.584;2023-09-19T06:22:40;8.65;;;2.47;;
67768;SDS011;54569;52.018;5.584;2023-09-19T06:25:13;8.27;;;2.22;;
67768;SDS011;54569;52.018;5.584;2023-09-19T06:27:45;12.55;;;2.80;;
67768;SDS011;54569;52.018;5.584;2023-09-19T06:30:12;9.95;;;2.10;;
67768;SDS011;54569;52.018;5.584;2023-09-19T06:32:39;6.70;;;1.85;;
67768;SDS011;54569;52.018;5.584;2023-09-19T06:35:09;11.68;;;2.30;;
67768;SDS011;54569;52.018;5.584;2023-09-19T06:37:36;11.23;;;2.20;;
67768;SDS011;54569;52.018;5.584;2023-09-19T06:40:09;8.65;;;2.00;;
67768;SDS011;54569;52.018;5.584;2023-09-19T06:42:45;6.20;;;1.80;;
67768;SDS011;54569;52.018;5.584;2023-09-19T06:45:14;6.82;;;2.83;;
67768;SDS011;54569;52.018;5.584;2023-09-19T06:47:50;8.70;;;2.05;;
67768;SDS011;54569;52.018;5.584;2023-09-19T06:50:17;11.27;;;2.38;;
67768;SDS011;54569;52.018;5.584;2023-09-19T06:52:45;7.68;;;1.85;;
67768;SDS011;54569;52.018;5.584;2023-09-19T06:55:18;7.90;;;1.70;;
67768;SDS011;54569;52.018;5.584;2023-09-19T06:57:45;10.13;;;2.70;;
67768;SDS011;54569;52.018;5.584;2023-09-19T07:00:11;8.75;;;2.00;;
67768;SDS011;54569;52.018;5.584;2023-09-19T07:05:23;9.73;;;2.35;;
67768;SDS011;54569;52.018;5.584;2023-09-19T07:07:49;10.13;;;2.38;;
67768;SDS011;54569;52.018;5.584;2023-09-19T07:10:15;10.18;;;2.40;;
67768;SDS011;54569;52.018;5.584;2023-09-19T07:12:41;11.75;;;2.88;;
67768;SDS011;54569;52.018;5.584;2023-09-19T07:15:07;4.95;;;1.73;;
67768;SDS011;54569;52.018;5.584;2023-09-19T07:17:33;7.53;;;2.08;;
67768;SDS011;54569;52.018;5.584;2023-09-19T07:19:59;9.73;;;2.83;;
67768;SDS011;54569;52.018;5.584;2023-09-19T07:22:27;8.98;;;2.08;;
67768;SDS011;54569;52.018;5.584;2023-09-19T07:24:53;7.70;;;2.22;;
67768;SDS011;54569;52.018;5.584;2023-09-19T07:27:19;11.63;;;2.17;;
67768;SDS011;54569;52.018;5.584;2023-09-19T07:29:45;10.35;;;2.30;;
67768;SDS011;54569;52.018;5.584;2023-09-19T07:32:11;6.60;;;2.38;;
67768;SDS011;54569;52.018;5.584;2023-09-19T07:34:36;12.07;;;2.78;;
67768;SDS011;54569;52.018;5.584;2023-09-19T07:37:05;9.07;;;2.50;;
67768;SDS011;54569;52.018;5.584;2023-09-19T07:39:31;11.98;;;2.58;;
67768;SDS011;54569;52.018;5.584;2023-09-19T07:41:57;9.60;;;3.08;;
67768;SDS011;54569;52.018;5.584;2023-09-19T07:44:23;8.98;;;2.47;;
67768;SDS011;54569;52.018;5.584;2023-09-19T07:46:50;5.68;;;2.20;;
67768;SDS011;54569;52.018;5.584;2023-09-19T07:49:17;11.43;;;2.40;;
67768;SDS011;54569;52.018;5.584;2023-09-19T07:51:43;9.27;;;2.80;;
67768;SDS011;54569;52.018;5.584;2023-09-19T07:54:12;8.95;;;2.47;;
67768;SDS011;54569;52.018;5.584;2023-09-19T07:56:38;7.50;;;2.40;;
67768;SDS011;54569;52.018;5.584;2023-09-19T07:59:03;5.78;;;2.00;;
67768;SDS011;54569;52.018;5.584;2023-09-19T08:01:29;10.68;;;2.17;;
67768;SDS011;54569;52.018;5.584;2023-09-19T08:03:55;7.55;;;2.17;;
67768;SDS011;54569;52.018;5.584;2023-09-19T08:06:21;12.15;;;2.17;;
67768;SDS011;54569;52.018;5.584;2023-09-19T08:08:46;9.10;;;2.28;;
67768;SDS011;54569;52.018;5.584;2023-09-19T08:11:15;8.20;;;2.72;;
67768;SDS011;54569;52.018;5.584;2023-09-19T08:13:46;9.68;;;2.72;;
67768;SDS011;54569;52.018;5.584;2023-09-19T08:16:14;9.68;;;2.58;;
67768;SDS011;54569;52.018;5.584;2023-09-19T08:18:40;10.10;;;2.83;;
67768;SDS011;54569;52.018;5.584;2023-09-19T08:21:07;9.93;;;2.88;;
67768;SDS011;54569;52.018;5.584;2023-09-19T08:23:35;12.35;;;2.75;;
67768;SDS011;54569;52.018;5.584;2023-09-19T08:26:05;10.85;;;2.72;;
67768;SDS011;54569;52.018;5.584;2023-09-19T08:28:34;8.95;;;2.60;;
67768;SDS011;54569;52.018;5.584;2023-09-19T08:31:03;9.25;;;2.65;;
67768;SDS011;54569;52.018;5.584;2023-09-19T08:33:33;11.07;;;2.92;;
67768;SDS011;54569;52.018;5.584;2023-09-19T08:36:01;11.48;;;2.90;;
67768;SDS011;54569;52.018;5.584;2023-09-19T08:38:30;9.23;;;2.65;;
67768;SDS011;54569;52.018;5.584;2023-09-19T08:40:58;9.55;;;2.90;;
67768;SDS011;54569;52.018;5.584;2023-09-19T08:43:27;8.27;;;2.60;;
67768;SDS011;54569;52.018;5.584;2023-09-19T08:45:55;12.10;;;2.75;;
67768;SDS011;54569;52.018;5.584;2023-09-19T08:48:29;6.47;;;2.60;;
67768;SDS011;54569;52.018;5.584;2023-09-19T08:51:00;8.57;;;2.85;;
67768;SDS011;54569;52.018;5.584;2023-09-19T08:53:51;10.27;;;3.03;;
67768;SDS011;54569;52.018;5.584;2023-09-19T08:56:44;8.55;;;2.97;;
67768;SDS011;54569;52.018;5.584;2023-09-19T08:59:12;9.52;;;2.42;;
67768;SDS011;54569;52.018;5.584;2023-09-19T09:01:38;10.32;;;2.70;;
67768;SDS011;54569;52.018;5.584;2023-09-19T09:04:07;11.60;;;2.78;;
67768;SDS011;54569;52.018;5.584;2023-09-19T09:06:35;8.35;;;2.38;;
67768;SDS011;54569;52.018;5.584;2023-09-19T09:09:04;7.72;;;2.67;;
67768;SDS011;54569;52.018;5.584;2023-09-19T09:11:30;6.93;;;2.53;;
67768;SDS011;54569;52.018;5.584;2023-09-19T09:13:58;9.57;;;2.78;;
67768;SDS011;54569;52.018;5.584;2023-09-19T09:16:24;9.63;;;2.85;;
67768;SDS011;54569;52.018;5.584;2023-09-19T09:18:50;10.00;;;2.78;;
67768;SDS011;54569;52.018;5.584;2023-09-19T09:21:17;9.60;;;2.72;;
67768;SDS011;54569;52.018;5.584;2023-09-19T09:23:43;9.35;;;2.40;;
67768;SDS011;54569;52.018;5.584;2023-09-19T09:26:09;6.03;;;2.10;;
67768;SDS011;54569;52.018;5.584;2023-09-19T09:28:35;6.80;;;2.15;;
67768;SDS011;54569;52.018;5.584;2023-09-19T09:31:04;8.43;;;2.72;;
67768;SDS011;54569;52.018;5.584;2023-09-19T09:33:34;9.32;;;2.22;;
67768;SDS011;54569;52.018;5.584;2023-09-19T09:36:01;11.40;;;2.50;;
67768;SDS011;54569;52.018;5.584;2023-09-19T09:38:44;8.52;;;2.60;;
67768;SDS011;54569;52.018;5.584;2023-09-19T09:41:11;6.35;;;2.42;;
67768;SDS011;54569;52.018;5.584;2023-09-19T09:43:41;9.18;;;2.05;;
67768;SDS011;54569;52.018;5.584;2023-09-19T09:46:12;8.77;;;2.28;;
67768;SDS011;54569;52.018;5.584;2023-09-19T09:49:03;8.98;;;2.60;;
67768;SDS011;54569;52.018;5.584;2023-09-19T09:51:44;7.97;;;2.60;;
67768;SDS011;54569;52.018;5.584;2023-09-19T09:54:22;8.05;;;2.42;;
67768;SDS011;54569;52.018;5.584;2023-09-19T09:56:58;7.55;;;2.40;;
67768;SDS011;54569;52.018;5.584;2023-09-19T10:02:27;8.43;;;2.25;;
67768;SDS011;54569;52.018;5.584;2023-09-19T10:05:14;6.97;;;2.60;;
67768;SDS011;54569;52.018;5.584;2023-09-19T10:07:52;7.28;;;2.17;;
67768;SDS011;54569;52.018;5.584;2023-09-19T10:10:35;7.57;;;2.78;;
67768;SDS011;54569;52.018;5.584;2023-09-19T10:15:44;8.93;;;2.40;;
67768;SDS011;54569;52.018;5.584;2023-09-19T10:18:25;6.90;;;1.95;;
67768;SDS011;54569;52.018;5.584;2023-09-19T10:20:53;7.28;;;2.33;;
67768;SDS011;54569;52.018;5.584;2023-09-19T10:23:20;7.05;;;2.15;;
67768;SDS011;54569;52.018;5.584;2023-09-19T10:25:51;6.85;;;2.75;;
67768;SDS011;54569;52.018;5.584;2023-09-19T10:28:18;6.93;;;2.00;;
67768;SDS011;54569;52.018;5.584;2023-09-19T10:30:48;6.47;;;2.40;;
67768;SDS011;54569;52.018;5.584;2023-09-19T10:33:21;7.50;;;2.35;;
67768;SDS011;54569;52.018;5.584;2023-09-19T10:35:51;6.68;;;2.03;;
67768;SDS011;54569;52.018;5.584;2023-09-19T10:38:17;6.60;;;1.90;;
67768;SDS011;54569;52.018;5.584;2023-09-19T10:40:50;9.98;;;2.63;;
67768;SDS011;54569;52.018;5.584;2023-09-19T10:43:18;8.90;;;2.30;;
67768;SDS011;54569;52.018;5.584;2023-09-19T10:45:46;4.53;;;2.05;;
67768;SDS011;54569;52.018;5.584;2023-09-19T10:48:18;8.40;;;1.88;;
67768;SDS011;54569;52.018;5.584;2023-09-19T10:51:19;10.02;;;2.25;;
67768;SDS011;54569;52.018;5.584;2023-09-19T10:53:50;4.93;;;1.83;;
67768;SDS011;54569;52.018;5.584;2023-09-19T10:56:20;5.75;;;2.10;;
67768;SDS011;54569;52.018;5.584;2023-09-19T10:59:12;6.70;;;1.77;;
67768;SDS011;54569;52.018;5.584;2023-09-19T11:01:43;4.43;;;1.90;;
67768;SDS011;54569;52.018;5.584;2023-09-19T11:04:31;6.27;;;2.07;;
67768;SDS011;54569;52.018;5.584;2023-09-19T11:09:52;7.40;;;2.53;;
67768;SDS011;54569;52.018;5.584;2023-09-19T11:15:06;8.60;;;2.45;;
67768;SDS011;54569;52.018;5.584;2023-09-19T11:17:40;3.72;;;1.85;;
67768;SDS011;54569;52.018;5.584;2023-09-19T11:30:37;8.10;;;1.98;;
67768;SDS011;54569;52.018;5.584;2023-09-19T11:33:16;7.57;;;1.90;;
67768;SDS011;54569;52.018;5.584;2023-09-19T11:36:05;4.45;;;1.60;;
67768;SDS011;54569;52.018;5.584;2023-09-19T11:47:14;5.63;;;1.70;;
67768;SDS011;54569;52.018;5.584;2023-09-19T11:49:19;8.43;;;1.83;;
67768;SDS011;54569;52.018;5.584;2023-09-19T11:51:54;6.43;;;2.15;;
67768;SDS011;54569;52.018;5.584;2023-09-19T11:54:21;6.32;;;1.70;;
67768;SDS011;54569;52.018;5.584;2023-09-19T11:56:56;5.65;;;1.70;;
67768;SDS011;54569;52.018;5.584;2023-09-19T12:02:03;4.93;;;1.47;;
67768;SDS011;54569;52.018;5.584;2023-09-19T12:04:36;5.15;;;1.60;;
67768;SDS011;54569;52.018;5.584;2023-09-19T12:07:07;3.90;;;1.77;;
67768;SDS011;54569;52.018;5.584;2023-09-19T12:09:47;4.13;;;1.40;;
67768;SDS011;54569;52.018;5.584;2023-09-19T12:12:25;5.93;;;1.92;;
67768;SDS011;54569;52.018;5.584;2023-09-19T12:14:55;5.53;;;1.40;;
67768;SDS011;54569;52.018;5.584;2023-09-19T12:17:37;4.00;;;1.67;;
67768;SDS011;54569;52.018;5.584;2023-09-19T12:20:04;4.35;;;1.70;;
67768;SDS011;54569;52.018;5.584;2023-09-19T12:22:43;5.78;;;1.30;;
67768;SDS011;54569;52.018;5.584;2023-09-19T12:25:11;8.15;;;1.60;;
67768;SDS011;54569;52.018;5.584;2023-09-19T12:27:47;6.38;;;1.50;;
67768;SDS011;54569;52.018;5.584;2023-09-19T12:30:18;6.20;;;1.40;;
67768;SDS011;54569;52.018;5.584;2023-09-19T12:32:46;7.10;;;1.30;;
67768;SDS011;54569;52.018;5.584;2023-09-19T12:35:30;1.90;;;1.20;;
67768;SDS011;54569;52.018;5.584;2023-09-19T12:38:00;3.38;;;1.33;;
67768;SDS011;54569;52.018;5.584;2023-09-19T12:40:26;7.20;;;1.30;;
67768;SDS011;54569;52.018;5.584;2023-09-19T12:42:58;5.63;;;1.90;;
67768;SDS011;54569;52.018;5.584;2023-09-19T12:45:24;4.20;;;1.60;;
67768;SDS011;54569;52.018;5.584;2023-09-19T12:51:02;2.95;;;1.10;;
67768;SDS011;54569;52.018;5.584;2023-09-19T12:53:36;7.50;;;1.05;;
67768;SDS011;54569;52.018;5.584;2023-09-19T12:56:07;6.65;;;1.27;;
67768;SDS011;54569;52.018;5.584;2023-09-19T12:58:47;3.22;;;1.15;;
67768;SDS011;54569;52.018;5.584;2023-09-19T13:03:44;3.05;;;1.02;;
67768;SDS011;54569;52.018;5.584;2023-09-19T13:06:11;3.22;;;1.10;;
67768;SDS011;54569;52.018;5.584;2023-09-19T13:08:38;5.75;;;1.23;;
67768;SDS011;54569;52.018;5.584;2023-09-19T13:11:16;4.55;;;1.27;;
67768;SDS011;54569;52.018;5.584;2023-09-19T13:22:01;3.33;;;1.25;;
67768;SDS011;54569;52.018;5.584;2023-09-19T13:24:27;4.43;;;1.15;;
67768;SDS011;54569;52.018;5.584;2023-09-19T13:26:55;3.83;;;1.15;;
67768;SDS011;54569;52.018;5.584;2023-09-19T13:29:20;5.40;;;1.35;;
67768;SDS011;54569;52.018;5.584;2023-09-19T13:31:47;4.07;;;1.25;;
67768;SDS011;54569;52.018;5.584;2023-09-19T13:34:14;2.70;;;1.20;;
67768;SDS011;54569;52.018;5.584;2023-09-19T13:36:43;3.88;;;1.10;;
67768;SDS011;54569;52.018;5.584;2023-09-19T13:39:09;3.80;;;1.38;;
67768;SDS011;54569;52.018;5.584;2023-09-19T13:41:38;5.85;;;1.20;;
67768;SDS011;54569;52.018;5.584;2023-09-19T13:44:04;3.97;;;0.95;;
67768;SDS011;54569;52.018;5.584;2023-09-19T13:46:30;4.13;;;0.90;;
67768;SDS011;54569;52.018;5.584;2023-09-19T13:48:58;3.30;;;1.08;;
67768;SDS011;54569;52.018;5.584;2023-09-19T13:51:27;3.30;;;1.15;;
67768;SDS011;54569;52.018;5.584;2023-09-19T13:53:57;6.15;;;1.20;;
67768;SDS011;54569;52.018;5.584;2023-09-19T13:56:23;3.95;;;0.98;;
67768;SDS011;54569;52.018;5.584;2023-09-19T13:58:49;3.42;;;0.90;;
67768;SDS011;54569;52.018;5.584;2023-09-19T14:01:15;3.63;;;0.80;;
67768;SDS011;54569;52.018;5.584;2023-09-19T14:03:41;4.70;;;0.90;;
67768;SDS011;54569;52.018;5.584;2023-09-19T14:06:15;4.43;;;1.08;;
67768;SDS011;54569;52.018;5.584;2023-09-19T14:08:41;2.92;;;1.00;;
67768;SDS011;54569;52.018;5.584;2023-09-19T14:11:08;2.55;;;1.30;;
67768;SDS011;54569;52.018;5.584;2023-09-19T14:13:34;3.08;;;1.08;;
67768;SDS011;54569;52.018;5.584;2023-09-19T14:16:17;2.03;;;1.17;;
67768;SDS011;54569;52.018;5.584;2023-09-19T14:21:10;2.13;;;0.95;;
67768;SDS011;54569;52.018;5.584;2023-09-19T14:23:39;1.60;;;1.00;;
67768;SDS011;54569;52.018;5.584;2023-09-19T14:26:06;2.33;;;1.10;;
67768;SDS011;54569;52.018;5.584;2023-09-19T14:28:32;5.38;;;1.40;;
67768;SDS011;54569;52.018;5.584;2023-09-19T14:31:08;2.38;;;0.98;;
67768;SDS011;54569;52.018;5.584;2023-09-19T14:33:34;3.08;;;1.20;;
67768;SDS011;54569;52.018;5.584;2023-09-19T14:36:03;3.42;;;1.08;;
67768;SDS011;54569;52.018;5.584;2023-09-19T14:38:34;5.18;;;1.13;;
67768;SDS011;54569;52.018;5.584;2023-09-19T14:41:04;4.00;;;1.20;;
67768;SDS011;54569;52.018;5.584;2023-09-19T14:43:31;1.63;;;0.80;;
67768;SDS011;54569;52.018;5.584;2023-09-19T14:46:02;4.05;;;1.10;;
67768;SDS011;54569;52.018;5.584;2023-09-19T14:48:28;2.03;;;1.27;;
67768;SDS011;54569;52.018;5.584;2023-09-19T14:50:54;4.32;;;1.00;;
67768;SDS011;54569;52.018;5.584;2023-09-19T14:53:20;3.15;;;1.23;;
67768;SDS011;54569;52.018;5.584;2023-09-19T14:55:46;6.47;;;1.63;;
67768;SDS011;54569;52.018;5.584;2023-09-19T14:58:13;2.22;;;1.15;;
67768;SDS011;54569;52.018;5.584;2023-09-19T15:00:39;4.43;;;1.38;;
67768;SDS011;54569;52.018;5.584;2023-09-19T15:03:04;4.03;;;1.50;;
67768;SDS011;54569;52.018;5.584;2023-09-19T15:05:31;3.30;;;1.35;;
67768;SDS011;54569;52.018;5.584;2023-09-19T15:07:56;4.63;;;1.30;;
67768;SDS011;54569;52.018;5.584;2023-09-19T15:10:23;2.47;;;1.40;;
67768;SDS011;54569;52.018;5.584;2023-09-19T15:12:49;2.78;;;1.27;;
67768;SDS011;54569;52.018;5.584;2023-09-19T15:15:14;3.22;;;1.15;;
67768;SDS011;54569;52.018;5.584;2023-09-19T15:17:40;3.88;;;1.50;;
67768;SDS011;54569;52.018;5.584;2023-09-19T15:20:06;3.85;;;1.35;;
67768;SDS011;54569;52.018;5.584;2023-09-19T15:22:33;2.45;;;1.20;;
67768;SDS011;54569;52.018;5.584;2023-09-19T15:25:00;4.93;;;1.55;;
67768;SDS011;54569;52.018;5.584;2023-09-19T15:27:27;5.05;;;1.92;;
67768;SDS011;54569;52.018;5.584;2023-09-19T15:29:56;5.75;;;1.58;;
67768;SDS011;54569;52.018;5.584;2023-09-19T15:32:23;4.60;;;1.42;;
67768;SDS011;54569;52.018;5.584;2023-09-19T15:34:49;3.38;;;1.45;;
67768;SDS011;54569;52.018;5.584;2023-09-19T15:37:15;2.65;;;1.02;;
67768;SDS011;54569;52.018;5.584;2023-09-19T15:39:41;5.35;;;1.60;;
67768;SDS011;54569;52.018;5.584;2023-09-19T15:42:08;5.13;;;1.33;;
67768;SDS011;54569;52.018;5.584;2023-09-19T15:44:33;4.65;;;1.48;;
67768;SDS011;54569;52.018;5.584;2023-09-19T15:46:59;3.90;;;1.50;;
67768;SDS011;54569;52.018;5.584;2023-09-19T15:49:25;3.22;;;1.38;;
67768;SDS011;54569;52.018;5.584;2023-09-19T15:51:51;3.63;;;1.60;;
67768;SDS011;54569;52.018;5.584;2023-09-19T15:54:17;3.08;;;1.80;;
67768;SDS011;54569;52.018;5.584;2023-09-19T15:56:43;5.85;;;1.40;;
67768;SDS011;54569;52.018;5.584;2023-09-19T15:59:10;2.25;;;1.50;;
67768;SDS011;54569;52.018;5.584;2023-09-19T16:01:43;4.18;;;1.48;;
67768;SDS011;54569;52.018;5.584;2023-09-19T16:04:11;3.35;;;1.50;;
67768;SDS011;54569;52.018;5.584;2023-09-19T16:06:37;3.85;;;1.77;;
67768;SDS011;54569;52.018;5.584;2023-09-19T16:09:04;4.10;;;1.70;;
67768;SDS011;54569;52.018;5.584;2023-09-19T16:11:31;4.68;;;1.58;;
67768;SDS011;54569;52.018;5.584;2023-09-19T16:13:58;4.35;;;1.73;;
67768;SDS011;54569;52.018;5.584;2023-09-19T16:16:25;4.90;;;1.65;;
67768;SDS011;54569;52.018;5.584;2023-09-19T16:18:58;3.92;;;1.30;;